createdAt,value
2022-09-11T00:01:22.873Z,94878.75
2022-09-11T00:03:49.969Z,94879.50
2022-09-11T00:06:29.282Z,94871.03
2022-09-11T00:09:02.719Z,94865.78
2022-09-11T00:11:33.214Z,94868.34
2022-09-11T00:14:00.272Z,94873.84
2022-09-11T00:16:33.902Z,94869.59
2022-09-11T00:19:03.877Z,94872.13
2022-09-11T00:21:30.667Z,94869.16
2022-09-11T00:23:58.105Z,94874.44
2022-09-11T00:26:25.568Z,94870.94
2022-09-11T00:28:52.654Z,94876.22
2022-09-11T00:31:22.244Z,94874.22
2022-09-11T00:33:49.176Z,94871.47
2022-09-11T00:36:27.566Z,94879.28
2022-09-11T00:38:54.222Z,94881.06
2022-09-11T00:41:25.698Z,94880.84
2022-09-11T00:44:04.768Z,94876.59
2022-09-11T00:46:40.149Z,94878.38
2022-09-11T00:49:30.487Z,94873.63
2022-09-11T00:52:06.050Z,94866.09
2022-09-11T00:54:36.280Z,94868.16
2022-09-11T00:57:06.565Z,94883.88
2022-09-11T00:59:34.542Z,94876.91
2022-09-11T01:02:02.171Z,94880.44
2022-09-11T01:04:29.371Z,94870.41
2022-09-11T01:06:58.102Z,94885.69
2022-09-11T01:09:29.435Z,94887.19
2022-09-11T01:12:23.778Z,94887.44
2022-09-11T01:15:05.766Z,94891.22
2022-09-11T01:17:52.285Z,94877.97
2022-09-11T01:20:43.687Z,94885.69
2022-09-11T01:23:13.224Z,94876.19
2022-09-11T01:25:42.754Z,94884.44
2022-09-11T01:28:16.242Z,94890.19
2022-09-11T01:30:50.876Z,94877.94
2022-09-11T01:33:24.417Z,94878.44
2022-09-11T01:36:07.952Z,94881.19
2022-09-11T01:38:54.352Z,94878.44
2022-09-11T01:41:29.442Z,94880.19
2022-09-11T01:44:10.730Z,94867.66
2022-09-11T01:46:42.777Z,94854.91
2022-09-11T01:49:15.549Z,94833.16
2022-09-11T01:51:42.393Z,94854.38
2022-09-11T01:54:14.600Z,94859.91
2022-09-11T01:56:55.858Z,94842.38
2022-09-11T01:59:28.049Z,94852.84
2022-09-11T02:02:02.325Z,94853.13
2022-09-11T02:04:41.725Z,94855.13
2022-09-11T02:07:13.175Z,94849.34
2022-09-11T02:10:01.736Z,94840.59
2022-09-11T02:12:40.969Z,94838.13
2022-09-11T02:15:08.407Z,94843.88
2022-09-11T02:17:46.345Z,94840.88
2022-09-11T02:20:12.884Z,94847.63
2022-09-11T02:22:40.436Z,94842.13
2022-09-11T02:25:07.470Z,94842.81
2022-09-11T02:27:35.258Z,94836.34
2022-09-11T02:30:02.012Z,94844.63
2022-09-11T02:32:30.634Z,94842.38
2022-09-11T02:34:58.291Z,94842.63
2022-09-11T02:38:09.825Z,94846.38
2022-09-11T02:40:53.013Z,94846.16
2022-09-11T02:43:50.925Z,94841.44
2022-09-11T02:46:34.620Z,94841.91
2022-09-11T02:49:15.515Z,94847.69
2022-09-11T02:52:21.264Z,94852.44
2022-09-11T02:55:04.256Z,94841.19
2022-09-11T02:57:33.152Z,94842.94
2022-09-11T03:00:02.980Z,94849.69
2022-09-11T03:02:30.839Z,94856.44
2022-09-11T03:04:58.142Z,94857.19
2022-09-11T03:07:25.488Z,94846.44
2022-09-11T03:09:52.696Z,94850.72
2022-09-11T03:12:19.441Z,94857.44
2022-09-11T03:14:46.152Z,94864.69
2022-09-11T03:17:13.436Z,94859.91
2022-09-11T03:19:40.074Z,94863.94
2022-09-11T03:22:06.701Z,94869.63
2022-09-11T03:24:33.314Z,94862.84
2022-09-11T03:27:00.088Z,94879.28
2022-09-11T03:29:26.666Z,94879.28
2022-09-11T03:31:53.266Z,94888.78
2022-09-11T03:34:20.133Z,94885.28
2022-09-11T03:36:48.094Z,94887.25
2022-09-11T03:39:14.700Z,94883.72
2022-09-11T03:41:41.262Z,94892.25
2022-09-11T03:44:08.227Z,94899.72
2022-09-11T03:46:35.222Z,94890.50
2022-09-11T03:49:02.432Z,94889.72
2022-09-11T03:51:29.008Z,94863.47
2022-09-11T03:53:55.715Z,94899.69
2022-09-11T03:56:22.342Z,94895.44
2022-09-11T03:58:49.028Z,94901.47
2022-09-11T04:01:19.144Z,94894.94
2022-09-11T04:03:45.915Z,94889.97
2022-09-11T04:06:13.791Z,94895.00
2022-09-11T04:08:41.286Z,94896.69
2022-09-11T04:11:08.774Z,94895.19
2022-09-11T04:13:38.817Z,94901.19
2022-09-11T04:16:07.964Z,94907.44
2022-09-11T04:18:36.697Z,94900.19
2022-09-11T04:21:08.013Z,94904.19
2022-09-11T04:23:34.747Z,94904.94
2022-09-11T04:26:01.828Z,94910.47
2022-09-11T04:28:31.842Z,94901.28
2022-09-11T04:31:05.216Z,94894.53
2022-09-11T04:33:31.851Z,94889.81
2022-09-11T04:36:03.306Z,94901.56
2022-09-11T04:38:29.911Z,94901.81
2022-09-11T04:41:00.867Z,94903.31
2022-09-11T04:43:28.413Z,94905.56
2022-09-11T04:46:03.337Z,94903.84
2022-09-11T04:48:29.984Z,94907.91
2022-09-11T04:51:22.436Z,94911.66
2022-09-11T04:53:50.216Z,94907.66
2022-09-11T04:56:17.363Z,94906.19
2022-09-11T04:58:44.410Z,94896.94
2022-09-11T05:01:16.430Z,94900.47
2022-09-11T05:03:43.979Z,94904.44
2022-09-11T05:06:12.269Z,94887.44
2022-09-11T05:08:38.844Z,94895.16
2022-09-11T05:11:06.227Z,94902.38
2022-09-11T05:13:36.460Z,94893.16
2022-09-11T05:16:05.289Z,94899.50
2022-09-11T05:18:32.401Z,94891.44
2022-09-11T05:21:03.473Z,94887.81
2022-09-11T05:23:31.905Z,94885.78
2022-09-11T05:26:05.417Z,94894.91
2022-09-11T05:28:32.633Z,94895.44
2022-09-11T05:31:00.030Z,94895.63
2022-09-11T05:33:28.033Z,94897.47
2022-09-11T05:36:02.600Z,94895.56
2022-09-11T05:38:30.095Z,94887.59
2022-09-11T05:40:56.744Z,94903.91
2022-09-11T05:43:23.336Z,94891.41
2022-09-11T05:45:57.967Z,94894.50
2022-09-11T05:48:25.548Z,94895.63
2022-09-11T05:50:56.783Z,94899.66
2022-09-11T05:53:23.800Z,94907.69
2022-09-11T05:55:51.754Z,94897.00
2022-09-11T05:58:18.715Z,94910.19
2022-09-11T06:00:48.572Z,94887.00
2022-09-11T06:03:19.394Z,94901.72
2022-09-11T06:05:45.955Z,94910.22
2022-09-11T06:08:12.878Z,94901.63
2022-09-11T06:10:48.852Z,94889.50
2022-09-11T06:13:18.225Z,94913.53
2022-09-11T06:15:49.228Z,94910.22
2022-09-11T06:18:16.660Z,94917.78
2022-09-11T06:20:43.757Z,94912.53
2022-09-11T06:23:11.517Z,94913.63
2022-09-11T06:25:38.984Z,94914.53
2022-09-11T06:28:05.672Z,94909.09
2022-09-11T06:30:33.650Z,94909.84
2022-09-11T06:33:00.353Z,94907.88
2022-09-11T06:35:27.063Z,94910.94
2022-09-11T06:37:53.797Z,94912.91
2022-09-11T06:40:20.600Z,94911.41
2022-09-11T06:42:47.429Z,94928.56
2022-09-11T06:45:18.042Z,94923.28
2022-09-11T06:47:45.155Z,94920.03
2022-09-11T06:50:14.889Z,94918.63
2022-09-11T06:52:46.317Z,94927.66
2022-09-11T06:55:16.552Z,94924.50
2022-09-11T06:57:43.353Z,94923.97
2022-09-11T07:00:11.126Z,94917.75
2022-09-11T07:02:47.076Z,94921.63
2022-09-11T07:05:18.522Z,94922.56
2022-09-11T07:07:46.699Z,94923.81
2022-09-11T07:10:14.004Z,94926.13
2022-09-11T07:12:44.486Z,94921.59
2022-09-11T07:15:14.556Z,94920.09
2022-09-11T07:17:51.631Z,94918.59
2022-09-11T07:20:22.596Z,94917.44
2022-09-11T07:22:49.897Z,94889.41
2022-09-11T07:25:20.058Z,94914.88
2022-09-11T07:27:47.546Z,94915.63
2022-09-11T07:30:14.806Z,94909.53
2022-09-11T07:32:42.924Z,94903.78
2022-09-11T07:35:10.008Z,94896.72
2022-09-11T07:37:39.361Z,94904.41
2022-09-11T07:40:19.392Z,94900.88
2022-09-11T07:42:53.161Z,94900.44
2022-09-11T07:45:25.566Z,94902.41
2022-09-11T07:47:56.805Z,94900.19
2022-09-11T07:50:25.789Z,94899.97
2022-09-11T07:52:52.812Z,94908.16
2022-09-11T07:55:19.707Z,94911.91
2022-09-11T07:57:53.007Z,94901.31
2022-09-11T08:00:20.051Z,94888.47
2022-09-11T08:02:48.535Z,94890.03
2022-09-11T08:05:15.946Z,94886.72
2022-09-11T08:07:42.935Z,94890.31
2022-09-11T08:10:26.813Z,94888.59
2022-09-11T08:12:59.194Z,94898.03
2022-09-11T08:15:33.430Z,94890.31
2022-09-11T08:18:01.372Z,94890.41
2022-09-11T08:20:31.382Z,94880.50
2022-09-11T08:23:01.872Z,94876.56
2022-09-11T08:25:29.036Z,94884.41
2022-09-11T08:27:58.051Z,94883.53
2022-09-11T08:30:25.275Z,94876.69
2022-09-11T08:32:52.331Z,94885.47
2022-09-11T08:35:22.291Z,94867.09
2022-09-11T08:37:54.827Z,94887.84
2022-09-11T08:40:22.375Z,94882.66
2022-09-11T08:42:53.267Z,94875.97
2022-09-11T08:45:25.957Z,94870.75
2022-09-11T08:47:57.720Z,94877.72
2022-09-11T08:50:40.359Z,94880.75
2022-09-11T08:53:15.677Z,94869.44
2022-09-11T08:55:51.529Z,94876.69
2022-09-11T08:58:21.653Z,94886.59
2022-09-11T09:01:07.367Z,94865.72
2022-09-11T09:03:59.256Z,94859.84
2022-09-11T09:06:32.692Z,94861.59
2022-09-11T09:09:13.432Z,94865.34
2022-09-11T09:12:06.666Z,94851.00
2022-09-11T09:14:34.842Z,94850.97
2022-09-11T09:17:38.767Z,94829.94
2022-09-11T09:20:21.530Z,94844.06
2022-09-11T09:22:59.155Z,94838.75
2022-09-11T09:25:28.908Z,94796.09
2022-09-11T09:28:27.395Z,94821.53
2022-09-11T09:31:00.407Z,94821.25
2022-09-11T09:33:56.985Z,94809.97
2022-09-11T09:36:42.189Z,94827.78
2022-09-11T09:39:23.709Z,94833.72
2022-09-11T09:42:14.380Z,94831.66
2022-09-11T09:44:51.650Z,94815.97
2022-09-11T09:47:26.366Z,94822.59
2022-09-11T09:49:59.652Z,94824.53
2022-09-11T09:52:36.331Z,94827.38
2022-09-11T09:55:14.828Z,94810.50
2022-09-11T09:57:41.820Z,94818.72
2022-09-11T10:00:22.857Z,94816.25
2022-09-11T10:02:55.379Z,94812.75
2022-09-11T10:05:29.981Z,94801.34
2022-09-11T10:08:00.740Z,94801.09
2022-09-11T10:10:30.962Z,94797.69
2022-09-11T10:13:18.204Z,94801.84
2022-09-11T10:15:49.520Z,94792.69
2022-09-11T10:18:36.345Z,94801.44
2022-09-11T10:21:13.088Z,94793.69
2022-09-11T10:24:01.459Z,94804.03
2022-09-11T10:26:44.231Z,94798.06
2022-09-11T10:29:22.895Z,94786.63
2022-09-11T10:31:53.779Z,94791.28
2022-09-11T10:34:24.319Z,94802.78
2022-09-11T10:36:55.907Z,94798.91
2022-09-11T10:39:30.036Z,94784.94
2022-09-11T10:42:02.333Z,94783.97
2022-09-11T10:44:30.987Z,94769.31
2022-09-11T10:47:06.772Z,94792.91
2022-09-11T10:49:37.027Z,94784.06
2022-09-11T10:52:22.599Z,94683.56
2022-09-11T10:55:08.150Z,94778.56
2022-09-11T10:57:44.520Z,94775.78
2022-09-11T11:00:23.458Z,94765.84
2022-09-11T11:02:53.818Z,94753.34
2022-09-11T11:05:57.506Z,94776.75
2022-09-11T11:08:48.957Z,94766.28
2022-09-11T11:11:33.535Z,94763.13
2022-09-11T11:14:27.454Z,94776.19
2022-09-11T11:17:09.068Z,94764.09
2022-09-11T11:19:57.615Z,94751.56
2022-09-11T11:22:49.393Z,94744.81
2022-09-11T11:25:31.696Z,94743.22
2022-09-11T11:28:08.218Z,94748.50
2022-09-11T11:30:45.048Z,94739.13
2022-09-11T11:33:35.685Z,94735.28
2022-09-11T11:36:24.139Z,94734.34
2022-09-11T11:39:01.967Z,94730.06
2022-09-11T11:41:37.959Z,94726.84
2022-09-11T11:44:09.783Z,94721.31
2022-09-11T11:46:43.043Z,94725.41
2022-09-11T11:49:19.654Z,94721.34
2022-09-11T11:52:11.738Z,94729.84
2022-09-11T11:54:49.963Z,94711.13
2022-09-11T11:57:22.455Z,94716.19
2022-09-11T12:00:12.290Z,94728.38
2022-09-11T12:02:49.617Z,94734.28
2022-09-11T12:05:31.229Z,94692.25
2022-09-11T12:07:58.914Z,94711.69
2022-09-11T12:10:38.423Z,94702.31
2022-09-11T12:13:14.390Z,94714.38
2022-09-11T12:16:11.431Z,94690.81
2022-09-11T12:18:39.121Z,94688.13
2022-09-11T12:21:24.865Z,94684.91
2022-09-11T12:23:51.419Z,94687.53
2022-09-11T12:26:25.700Z,94669.72
2022-09-11T12:29:13.068Z,94685.78
2022-09-11T12:31:51.746Z,94680.69
2022-09-11T12:34:23.236Z,94686.63
2022-09-11T12:36:54.884Z,94667.44
2022-09-11T12:39:26.612Z,94668.09
2022-09-11T12:41:53.634Z,94681.31
2022-09-11T12:44:45.999Z,94665.66
2022-09-11T12:47:23.475Z,94649.38
2022-09-11T12:50:05.434Z,94654.56
2022-09-11T12:53:02.395Z,94657.22
2022-09-11T12:55:39.694Z,94657.97
2022-09-11T12:58:49.912Z,94649.91
2022-09-11T13:01:36.944Z,94652.69
2022-09-11T13:04:09.748Z,94652.66
2022-09-11T13:06:42.884Z,94640.09
2022-09-11T13:09:29.653Z,94639.31
2022-09-11T13:12:47.636Z,94638.47
2022-09-11T13:15:33.094Z,94632.69
2022-09-11T13:17:59.749Z,94628.31
2022-09-11T13:20:26.474Z,94628.34
2022-09-11T13:22:58.150Z,94616.72
2022-09-11T13:25:28.138Z,94622.03
2022-09-11T13:28:01.560Z,94616.09
2022-09-11T13:30:28.482Z,94625.84
2022-09-11T13:33:21.679Z,94616.44
2022-09-11T13:35:48.392Z,94614.09
2022-09-11T13:38:23.333Z,94618.53
2022-09-11T13:40:59.808Z,94613.88
2022-09-11T13:43:35.787Z,94613.19
2022-09-11T13:46:23.068Z,94605.97
2022-09-11T13:48:54.503Z,94599.53
2022-09-11T13:51:25.596Z,94585.91
2022-09-11T13:54:17.224Z,94596.41
2022-09-11T13:57:06.889Z,94586.13
2022-09-11T13:59:38.294Z,94590.63
2022-09-11T14:02:35.640Z,94592.44
2022-09-11T14:05:05.328Z,94596.91
2022-09-11T14:07:35.082Z,94593.75
2022-09-11T14:10:06.305Z,94585.34
2022-09-11T14:12:35.098Z,94589.22
2022-09-11T14:15:16.342Z,94582.25
2022-09-11T14:17:42.996Z,94583.09
2022-09-11T14:20:20.102Z,94585.06
2022-09-11T14:22:47.713Z,94565.63
2022-09-11T14:25:23.579Z,94574.00
2022-09-11T14:27:50.449Z,94574.41
2022-09-11T14:30:34.808Z,94567.34
2022-09-11T14:33:27.002Z,94574.38
2022-09-11T14:36:04.625Z,94566.38
2022-09-11T14:38:35.291Z,94563.91
2022-09-11T14:41:05.998Z,94561.53
2022-09-11T14:43:35.026Z,94567.31
2022-09-11T14:46:02.907Z,94565.66
2022-09-11T14:48:31.360Z,94561.81
2022-09-11T14:50:58.585Z,94568.66
2022-09-11T14:53:30.864Z,94570.91
2022-09-11T14:56:02.195Z,94560.50
2022-09-11T14:58:29.799Z,94570.72
2022-09-11T15:00:57.145Z,94563.53
2022-09-11T15:03:27.077Z,94572.59
2022-09-11T15:05:56.400Z,94571.13
2022-09-11T15:08:24.249Z,94573.16
2022-09-11T15:10:53.530Z,94571.09
2022-09-11T15:13:21.235Z,94565.19
2022-09-11T15:15:47.919Z,94567.41
2022-09-11T15:18:14.720Z,94562.41
2022-09-11T15:20:41.382Z,94562.56
2022-09-11T15:23:07.989Z,94568.50
2022-09-11T15:25:34.583Z,94569.78
2022-09-11T15:28:01.300Z,94578.28
2022-09-11T15:30:28.164Z,94579.59
2022-09-11T15:32:55.320Z,94571.81
2022-09-11T15:35:23.323Z,94569.91
2022-09-11T15:37:50.814Z,94566.94
2022-09-11T15:40:17.673Z,94572.41
2022-09-11T15:42:44.377Z,94577.00
2022-09-11T15:45:12.969Z,94577.53
2022-09-11T15:47:40.459Z,94572.31
2022-09-11T15:50:08.431Z,94576.34
2022-09-11T15:52:36.638Z,94580.41
2022-09-11T15:55:04.355Z,94588.09
2022-09-11T15:57:31.323Z,94597.34
2022-09-11T15:59:57.988Z,94611.31
2022-09-11T16:02:24.732Z,94617.44
2022-09-11T16:04:53.775Z,94631.53
2022-09-11T16:07:21.910Z,94624.97
2022-09-11T16:09:48.525Z,94636.09
2022-09-11T16:12:15.683Z,94648.34
2022-09-11T16:14:42.973Z,94653.72
2022-09-11T16:17:10.205Z,94655.09
2022-09-11T16:19:36.899Z,94650.25
2022-09-11T16:22:05.331Z,94645.75
2022-09-11T16:24:37.191Z,94646.75
2022-09-11T16:27:05.867Z,94645.91
2022-09-11T16:29:51.485Z,94653.38
2022-09-11T16:32:28.517Z,94663.91
2022-09-11T16:34:57.772Z,94665.31
2022-09-11T16:37:25.034Z,94657.47
2022-09-11T16:39:51.704Z,94636.28
2022-09-11T16:42:21.175Z,94642.38
2022-09-11T16:44:48.664Z,94666.91
2022-09-11T16:47:16.384Z,94642.94
2022-09-11T16:52:29.593Z,94668.19
2022-09-11T16:54:56.626Z,94655.69
2022-09-11T16:57:23.539Z,94665.50
2022-09-11T16:59:51.255Z,94675.81
2022-09-11T17:02:17.812Z,94675.81
2022-09-11T17:04:44.754Z,94667.31
2022-09-11T17:07:11.526Z,94685.22
2022-09-11T17:09:38.732Z,94679.09
2022-09-11T17:12:05.353Z,94682.91
2022-09-11T17:14:32.692Z,94699.44
2022-09-11T17:16:59.276Z,94693.50
2022-09-11T17:19:25.878Z,94695.56
2022-09-11T17:21:52.417Z,94711.91
2022-09-11T17:24:23.108Z,94714.47
2022-09-11T17:26:50.599Z,94706.31
2022-09-11T17:29:19.431Z,94727.09
2022-09-11T17:31:46.368Z,94708.91
2022-09-11T17:34:14.191Z,94729.97
2022-09-11T17:36:41.207Z,94742.03
2022-09-11T17:39:07.770Z,94733.28
2022-09-11T17:41:34.338Z,94733.72
2022-09-11T17:44:00.897Z,94740.03
2022-09-11T17:46:28.318Z,94748.81
2022-09-11T17:48:55.882Z,94748.34
2022-09-11T17:51:25.484Z,94760.84
2022-09-11T17:53:57.534Z,94759.59
2022-09-11T17:56:25.881Z,94768.41
2022-09-11T17:58:55.004Z,94762.91
2022-09-11T18:01:22.835Z,94773.91
2022-09-11T18:03:51.050Z,94779.44
2022-09-11T18:06:36.154Z,94767.19
2022-09-11T18:09:16.329Z,94772.22
2022-09-11T18:11:44.865Z,94779.47
2022-09-11T18:14:13.789Z,94793.47
2022-09-11T18:16:43.676Z,94785.22
2022-09-11T18:19:10.717Z,94790.47
2022-09-11T18:21:38.490Z,94799.44
2022-09-11T18:24:06.566Z,94788.69
2022-09-11T18:26:39.461Z,94793.19
2022-09-11T18:29:11.786Z,94769.69
2022-09-11T18:31:41.731Z,94804.94
2022-09-11T18:34:10.912Z,94802.91
2022-09-11T18:36:37.701Z,94809.16
2022-09-11T18:39:05.076Z,94802.41
2022-09-11T18:41:34.925Z,94806.66
2022-09-11T18:44:04.254Z,94818.88
2022-09-11T18:46:33.956Z,94810.69
2022-09-11T18:49:00.596Z,94803.16
2022-09-11T18:51:27.227Z,94802.41
2022-09-11T18:53:54.611Z,94801.91
2022-09-11T18:56:23.567Z,94797.22
2022-09-11T18:58:52.324Z,94791.97
2022-09-11T19:01:21.550Z,94789.69
2022-09-11T19:03:57.391Z,94777.69
2022-09-11T19:06:27.577Z,94776.97
2022-09-11T19:08:56.144Z,94773.97
2022-09-11T19:11:25.860Z,94776.22
2022-09-11T19:13:54.643Z,94774.72
2022-09-11T19:16:23.046Z,94776.19
2022-09-11T19:18:50.862Z,94776.69
2022-09-11T19:21:21.033Z,94774.72
2022-09-11T19:23:51.003Z,94771.72
2022-09-11T19:26:24.957Z,94766.47
2022-09-11T19:28:52.315Z,94786.44
2022-09-11T19:31:21.418Z,94783.22
2022-09-11T19:33:48.251Z,94785.47
2022-09-11T19:36:20.644Z,94777.69
2022-09-11T19:38:49.719Z,94793.16
2022-09-11T19:41:23.163Z,94796.47
2022-09-11T19:43:50.841Z,94798.22
2022-09-11T19:46:26.538Z,94795.22
2022-09-11T19:48:56.762Z,94730.94
2022-09-11T19:51:26.072Z,94791.41
2022-09-11T19:53:56.279Z,94783.66
2022-09-11T19:56:23.955Z,94783.44
2022-09-11T19:58:51.324Z,94777.91
2022-09-11T20:01:23.888Z,94787.66
2022-09-11T20:03:53.189Z,94803.63
2022-09-11T20:06:22.033Z,94810.84
2022-09-11T20:08:55.921Z,94810.06
2022-09-11T20:11:30.347Z,94802.81
2022-09-11T20:14:00.308Z,94814.06
2022-09-11T20:16:28.039Z,94804.81
2022-09-11T20:18:57.088Z,94821.53
2022-09-11T20:21:24.207Z,94820.03
2022-09-11T20:23:55.435Z,94806.28
2022-09-11T20:26:24.848Z,94808.78
2022-09-11T20:29:00.540Z,94815.28
2022-09-11T20:31:31.540Z,94815.28
2022-09-11T20:34:00.745Z,94805.28
2022-09-11T20:36:30.166Z,94825.00
2022-09-11T20:39:00.813Z,94827.47
2022-09-11T20:41:30.343Z,94829.72
2022-09-11T20:43:58.122Z,94837.97
2022-09-11T20:46:25.446Z,94842.16
2022-09-11T20:48:53.039Z,94835.41
2022-09-11T20:51:21.549Z,94840.19
2022-09-11T20:53:48.813Z,94845.88
2022-09-11T20:56:17.875Z,94844.13
2022-09-11T20:58:44.891Z,94842.88
2022-09-11T21:01:15.110Z,94846.34
2022-09-11T21:04:08.180Z,94837.09
2022-09-11T21:06:35.297Z,94844.28
2022-09-11T21:09:06.020Z,94852.09
2022-09-11T21:11:34.649Z,94845.88
2022-09-11T21:14:01.296Z,94847.31
2022-09-11T21:16:28.337Z,94838.03
2022-09-11T21:18:57.519Z,94854.81
2022-09-11T21:21:25.493Z,94860.09
2022-09-11T21:23:57.276Z,94855.34
2022-09-11T21:26:26.256Z,94854.78
2022-09-11T21:28:53.005Z,94847.56
2022-09-11T21:31:19.801Z,94837.13
2022-09-11T21:33:46.457Z,94831.66
2022-09-11T21:36:13.138Z,94830.41
2022-09-11T21:38:39.823Z,94821.88
2022-09-11T21:41:08.851Z,94834.59
2022-09-11T21:43:35.771Z,94844.56
2022-09-11T21:46:03.997Z,94837.34
2022-09-11T21:48:35.764Z,94837.28
2022-09-11T21:51:09.811Z,94841.53
2022-09-11T21:53:37.721Z,94834.22
2022-09-11T21:56:05.371Z,94833.75
2022-09-11T21:58:32.544Z,94834.22
2022-09-11T22:01:08.215Z,94838.25
2022-09-11T22:03:34.972Z,94832.25
2022-09-11T22:06:06.664Z,94823.00
2022-09-11T22:08:33.395Z,94828.16
2022-09-11T22:11:03.155Z,94813.84
2022-09-11T22:13:30.140Z,94841.34
2022-09-11T22:15:57.716Z,94835.34
2022-09-11T22:18:24.295Z,94836.34
2022-09-11T22:20:50.848Z,94824.63
2022-09-11T22:23:21.878Z,94814.91
2022-09-11T22:25:56.814Z,94824.13
2022-09-11T22:28:23.350Z,94836.34
2022-09-11T22:30:49.943Z,94840.56
2022-09-11T22:33:16.607Z,94844.81
2022-09-11T22:35:46.607Z,94838.81
2022-09-11T22:38:15.598Z,94841.84
2022-09-11T22:40:42.310Z,94842.59
2022-09-11T22:43:09.014Z,94839.09
2022-09-11T22:45:35.704Z,94838.59
2022-09-11T22:48:02.903Z,94830.59
2022-09-11T22:50:29.492Z,94849.06
2022-09-11T22:52:56.105Z,94831.53
2022-09-11T22:55:22.660Z,94837.34
2022-09-11T22:57:49.227Z,94836.59
2022-09-11T23:00:16.155Z,94834.34
2022-09-11T23:02:42.804Z,94831.09
2022-09-11T23:05:29.600Z,94824.06
2022-09-11T23:07:56.165Z,94830.28
2022-09-11T23:10:23.812Z,94827.25
2022-09-11T23:12:53.804Z,94838.22
2022-09-11T23:15:20.611Z,94850.66
2022-09-11T23:17:47.288Z,94853.34
2022-09-11T23:20:14.175Z,94845.44
2022-09-11T23:22:40.742Z,94840.91
2022-09-11T23:25:07.930Z,94839.47
2022-09-11T23:27:34.542Z,94846.16
2022-09-11T23:30:03.191Z,94847.59
2022-09-11T23:32:29.781Z,94841.38
2022-09-11T23:34:56.404Z,94843.59
2022-09-11T23:37:23.012Z,94845.53
2022-09-11T23:39:49.660Z,94837.81
2022-09-11T23:42:16.272Z,94832.25
2022-09-11T23:44:42.928Z,94840.72
2022-09-11T23:47:09.457Z,94829.88
2022-09-11T23:49:36.636Z,94840.91
2022-09-11T23:52:04.707Z,94841.81
2022-09-11T23:54:31.306Z,94836.56
2022-09-11T23:56:58.081Z,94829.75
2022-09-11T23:59:24.659Z,94848.44
